createdAt,value
2017-12-03T00:01:07.072Z,0.60
2017-12-03T00:03:34.692Z,0.60
2017-12-03T00:06:02.272Z,0.60
2017-12-03T00:08:29.925Z,0.60
2017-12-03T00:10:57.509Z,0.60
2017-12-03T00:13:25.113Z,0.60
2017-12-03T00:15:53.468Z,0.60
2017-12-03T00:18:21.052Z,0.60
2017-12-03T00:20:49.480Z,0.60
2017-12-03T00:23:17.072Z,0.60
2017-12-03T00:25:44.710Z,0.60
2017-12-03T00:28:12.314Z,0.70
2017-12-03T00:30:40.736Z,0.60
2017-12-03T00:33:08.271Z,0.60
2017-12-03T00:35:35.977Z,0.60
2017-12-03T00:38:03.625Z,0.60
2017-12-03T00:40:31.260Z,0.60
2017-12-03T00:42:59.595Z,0.70
2017-12-03T00:45:27.217Z,0.70
2017-12-03T00:47:54.793Z,0.70
2017-12-03T00:50:22.427Z,0.70
2017-12-03T00:52:50.761Z,0.70
2017-12-03T00:55:18.365Z,0.70
2017-12-03T00:57:45.969Z,0.70
2017-12-03T01:00:13.558Z,0.70
2017-12-03T01:02:41.195Z,0.70
2017-12-03T01:05:08.907Z,0.70
2017-12-03T01:07:37.266Z,0.70
2017-12-03T01:10:04.931Z,0.70
2017-12-03T01:12:32.554Z,0.70
2017-12-03T01:15:00.147Z,0.70
2017-12-03T01:17:27.742Z,0.70
2017-12-03T01:19:55.335Z,0.70
2017-12-03T01:22:22.934Z,0.70
2017-12-03T01:24:50.498Z,0.70
2017-12-03T01:27:18.103Z,0.70
2017-12-03T01:29:45.661Z,0.80
2017-12-03T01:32:13.235Z,0.70
2017-12-03T01:34:42.241Z,0.70
2017-12-03T01:37:10.576Z,0.70
2017-12-03T01:39:39.095Z,0.70
2017-12-03T01:42:06.723Z,0.70
2017-12-03T01:44:35.067Z,0.80
2017-12-03T01:47:02.650Z,0.80
2017-12-03T01:49:31.066Z,0.80
2017-12-03T01:51:58.625Z,0.80
2017-12-03T01:54:26.186Z,0.80
2017-12-03T01:56:53.789Z,0.80
2017-12-03T01:59:21.373Z,0.80
2017-12-03T02:01:49.725Z,0.90
2017-12-03T02:04:18.273Z,0.90
2017-12-03T02:06:46.227Z,0.90
2017-12-03T02:09:13.842Z,0.90
2017-12-03T02:11:41.432Z,0.90
2017-12-03T02:14:09.763Z,0.90
2017-12-03T02:16:37.332Z,0.90
2017-12-03T02:19:06.896Z,0.90
2017-12-03T02:21:34.485Z,0.90
2017-12-03T02:24:02.079Z,0.90
2017-12-03T02:26:29.652Z,0.90
2017-12-03T02:28:58.051Z,0.90
2017-12-03T02:31:26.403Z,0.90
2017-12-03T02:33:53.972Z,0.90
2017-12-03T02:36:22.294Z,0.90
2017-12-03T02:38:49.890Z,0.90
2017-12-03T02:41:17.452Z,0.90
2017-12-03T02:43:45.065Z,0.90
2017-12-03T02:46:12.668Z,0.90
2017-12-03T02:48:40.314Z,0.90
2017-12-03T02:51:07.993Z,0.90
2017-12-03T02:53:35.633Z,0.90
2017-12-03T02:56:03.219Z,1.00
2017-12-03T02:58:30.807Z,0.90
2017-12-03T03:00:59.225Z,1.00
2017-12-03T03:03:26.800Z,0.90
2017-12-03T03:05:54.401Z,1.00
2017-12-03T03:08:21.970Z,1.00
2017-12-03T03:10:50.413Z,1.00
2017-12-03T03:13:17.976Z,1.00
2017-12-03T03:15:45.571Z,1.00
2017-12-03T03:18:13.901Z,1.10
2017-12-03T03:20:41.871Z,1.10
2017-12-03T03:23:09.530Z,1.10
2017-12-03T03:25:37.124Z,1.10
2017-12-03T03:28:04.698Z,1.10
2017-12-03T03:30:33.198Z,1.10
2017-12-03T03:33:01.559Z,1.10
2017-12-03T03:35:29.101Z,1.10
2017-12-03T03:37:56.679Z,1.10
2017-12-03T03:40:24.233Z,1.10
2017-12-03T03:42:51.856Z,1.10
2017-12-03T03:45:19.437Z,1.10
2017-12-03T03:47:47.017Z,1.10
2017-12-03T03:50:14.734Z,1.20
2017-12-03T03:52:42.277Z,1.10
2017-12-03T03:55:09.852Z,1.20
2017-12-03T03:57:37.418Z,1.20
2017-12-03T04:00:05.014Z,1.20
2017-12-03T04:02:32.609Z,1.20
2017-12-03T04:05:00.946Z,1.20
2017-12-03T04:07:28.518Z,1.20
2017-12-03T04:09:56.125Z,1.10
2017-12-03T04:12:23.681Z,1.10
2017-12-03T04:14:51.275Z,1.10
2017-12-03T04:17:18.814Z,1.10
2017-12-03T04:19:46.378Z,1.10
2017-12-03T04:22:13.963Z,1.10
2017-12-03T04:24:41.518Z,1.10
2017-12-03T04:27:09.114Z,1.10
2017-12-03T04:29:36.689Z,1.10
2017-12-03T04:32:05.041Z,1.00
2017-12-03T04:34:32.601Z,1.00
2017-12-03T04:37:00.166Z,1.00
2017-12-03T04:39:27.717Z,1.10
2017-12-03T04:41:55.314Z,1.10
2017-12-03T04:44:23.642Z,1.00
2017-12-03T04:46:51.293Z,1.00
2017-12-03T04:49:18.836Z,1.00
2017-12-03T04:51:46.410Z,0.90
2017-12-03T04:54:13.994Z,0.90
2017-12-03T04:56:41.546Z,0.90
2017-12-03T04:59:09.133Z,0.90
2017-12-03T05:01:36.669Z,0.90
2017-12-03T05:04:04.260Z,0.90
2017-12-03T05:06:31.833Z,0.90
2017-12-03T05:09:00.176Z,0.90
2017-12-03T05:11:27.741Z,0.90
2017-12-03T05:13:55.320Z,0.90
2017-12-03T05:16:22.920Z,0.90
2017-12-03T05:18:51.233Z,0.90
2017-12-03T05:21:18.912Z,0.90
2017-12-03T05:23:46.481Z,0.90
2017-12-03T05:26:14.062Z,0.80
2017-12-03T05:28:42.425Z,0.90
2017-12-03T05:31:09.987Z,0.80
2017-12-03T05:33:37.531Z,0.80
2017-12-03T05:36:05.101Z,0.80
2017-12-03T05:38:32.665Z,0.80
2017-12-03T05:41:01.029Z,0.80
2017-12-03T05:43:28.573Z,0.80
2017-12-03T05:45:56.927Z,0.80
2017-12-03T05:48:24.469Z,0.80
2017-12-03T05:50:52.801Z,0.80
2017-12-03T05:53:20.366Z,0.80
2017-12-03T05:55:47.937Z,0.80
2017-12-03T05:58:15.493Z,0.80
2017-12-03T06:00:43.102Z,0.80
2017-12-03T06:03:10.646Z,0.80
2017-12-03T06:05:38.994Z,0.80
2017-12-03T06:08:06.582Z,0.80
2017-12-03T06:10:34.979Z,0.80
2017-12-03T06:13:02.558Z,0.80
2017-12-03T06:15:30.132Z,0.80
2017-12-03T06:17:57.699Z,0.80
2017-12-03T06:20:25.261Z,0.80
2017-12-03T06:22:52.822Z,0.80
2017-12-03T06:25:21.166Z,0.80
2017-12-03T06:27:48.865Z,0.80
2017-12-03T06:30:16.414Z,0.80
2017-12-03T06:32:43.961Z,0.80
2017-12-03T06:35:11.567Z,0.80
2017-12-03T06:37:39.125Z,0.80
2017-12-03T06:40:06.683Z,0.80
2017-12-03T06:42:34.217Z,0.80
2017-12-03T06:45:01.810Z,0.80
2017-12-03T06:47:29.363Z,0.80
2017-12-03T06:49:56.904Z,0.80
2017-12-03T06:52:24.506Z,0.80
2017-12-03T06:54:52.368Z,0.80
2017-12-03T06:57:20.294Z,0.80
2017-12-03T06:59:47.852Z,0.80
2017-12-03T07:02:15.501Z,0.80
2017-12-03T07:04:43.074Z,0.80
2017-12-03T07:07:10.661Z,0.80
2017-12-03T07:09:38.224Z,0.80
2017-12-03T07:12:05.782Z,0.90
2017-12-03T07:14:33.365Z,0.90
2017-12-03T07:17:01.098Z,0.90
2017-12-03T07:19:28.658Z,0.90
2017-12-03T07:21:56.205Z,0.90
2017-12-03T07:24:23.782Z,0.90
2017-12-03T07:26:51.335Z,0.90
2017-12-03T07:29:18.925Z,0.90
2017-12-03T07:31:46.502Z,0.90
2017-12-03T07:34:14.896Z,0.90
2017-12-03T07:36:43.237Z,0.90
2017-12-03T07:39:10.806Z,0.90
2017-12-03T07:41:38.415Z,0.90
2017-12-03T07:44:06.005Z,0.90
2017-12-03T07:46:33.538Z,0.90
2017-12-03T07:49:01.106Z,0.90
2017-12-03T07:51:28.651Z,0.90
2017-12-03T07:53:56.207Z,0.90
2017-12-03T07:56:23.898Z,0.90
2017-12-03T07:58:51.503Z,0.90
2017-12-03T08:01:19.063Z,0.90
2017-12-03T08:03:46.632Z,0.90
2017-12-03T08:06:14.994Z,1.00
2017-12-03T08:08:42.572Z,1.00
2017-12-03T08:11:10.913Z,1.00
2017-12-03T08:13:38.489Z,1.00
2017-12-03T08:16:06.045Z,1.00
2017-12-03T08:18:33.630Z,1.00
2017-12-03T08:21:01.959Z,1.00
2017-12-03T08:23:29.556Z,1.00
2017-12-03T08:25:57.526Z,1.00
2017-12-03T08:28:25.818Z,1.10
2017-12-03T08:30:54.146Z,1.00
2017-12-03T08:33:21.775Z,1.00
2017-12-03T08:35:49.334Z,1.10
2017-12-03T08:38:17.682Z,1.10
2017-12-03T08:40:45.241Z,1.10
2017-12-03T08:43:12.794Z,1.10
2017-12-03T08:45:40.364Z,1.00
2017-12-03T08:48:07.897Z,1.00
2017-12-03T08:50:35.469Z,1.00
2017-12-03T08:53:03.041Z,1.00
2017-12-03T08:55:30.613Z,1.00
2017-12-03T08:57:58.953Z,1.00
2017-12-03T09:00:26.521Z,1.00
2017-12-03T09:02:54.098Z,1.00
2017-12-03T09:05:21.693Z,1.00
2017-12-03T09:07:50.096Z,1.00
2017-12-03T09:10:17.609Z,1.00
2017-12-03T09:12:45.216Z,1.00
2017-12-03T09:15:12.852Z,1.00
2017-12-03T09:17:41.217Z,1.00
2017-12-03T09:20:08.835Z,1.00
2017-12-03T09:22:36.417Z,1.00
2017-12-03T09:25:03.989Z,1.00
2017-12-03T09:27:31.554Z,1.10
2017-12-03T09:29:59.145Z,1.10
2017-12-03T09:32:26.694Z,1.10
2017-12-03T09:34:55.031Z,1.20
2017-12-03T09:37:22.981Z,1.10
2017-12-03T09:39:50.541Z,1.10
2017-12-03T09:42:18.407Z,1.20
2017-12-03T09:44:46.029Z,1.20
2017-12-03T09:47:13.558Z,1.10
2017-12-03T09:49:41.125Z,1.10
2017-12-03T09:52:08.717Z,1.10
2017-12-03T09:54:37.030Z,1.10
2017-12-03T09:57:04.599Z,1.10
2017-12-03T09:59:32.137Z,1.10
2017-12-03T10:01:59.697Z,1.10
2017-12-03T10:04:27.251Z,1.20
2017-12-03T10:06:54.828Z,1.20
2017-12-03T10:09:22.380Z,1.30
2017-12-03T10:11:50.431Z,1.30
2017-12-03T10:14:18.787Z,1.30
2017-12-03T10:16:46.379Z,1.30
2017-12-03T10:19:14.745Z,1.30
2017-12-03T10:21:43.077Z,1.30
2017-12-03T10:24:10.651Z,1.30
2017-12-03T10:26:38.218Z,1.30
2017-12-03T10:29:05.826Z,1.30
2017-12-03T10:31:33.424Z,1.30
2017-12-03T10:34:00.977Z,1.30
2017-12-03T10:36:28.527Z,1.30
2017-12-03T10:38:56.117Z,1.30
2017-12-03T10:41:23.722Z,1.30
2017-12-03T10:43:52.070Z,1.30
2017-12-03T10:46:19.765Z,1.30
2017-12-03T10:48:48.088Z,1.40
2017-12-03T10:51:15.662Z,1.40
2017-12-03T10:53:56.857Z,1.40
2017-12-03T10:56:24.609Z,1.40
2017-12-03T10:58:52.218Z,1.40
2017-12-03T11:01:19.858Z,1.50
2017-12-03T11:03:48.229Z,1.50
2017-12-03T11:06:16.598Z,1.60
2017-12-03T11:08:53.764Z,1.60
2017-12-03T11:11:23.887Z,1.70
2017-12-03T11:13:51.489Z,1.70
2017-12-03T11:16:19.937Z,1.80
2017-12-03T11:18:47.595Z,1.80
2017-12-03T11:21:15.185Z,1.80
2017-12-03T11:23:54.391Z,1.80
2017-12-03T11:26:23.011Z,1.90
2017-12-03T11:28:51.431Z,1.90
2017-12-03T11:31:18.999Z,1.90
2017-12-03T11:33:46.737Z,1.90
2017-12-03T11:36:14.305Z,1.90
2017-12-03T11:38:45.937Z,1.90
2017-12-03T11:41:13.769Z,1.90
2017-12-03T11:43:41.355Z,1.80
2017-12-03T11:46:09.702Z,1.80
2017-12-03T11:48:37.274Z,1.80
2017-12-03T11:51:04.854Z,1.80
2017-12-03T11:53:33.222Z,1.70
2017-12-03T11:56:00.834Z,1.70
2017-12-03T11:58:28.439Z,1.80
2017-12-03T12:00:56.020Z,1.80
2017-12-03T12:03:24.574Z,1.80
2017-12-03T12:05:52.143Z,1.70
2017-12-03T12:08:19.709Z,1.80
2017-12-03T12:10:47.312Z,1.70
2017-12-03T12:13:15.669Z,1.80
2017-12-03T12:15:44.021Z,1.80
2017-12-03T12:18:11.680Z,1.80
2017-12-03T12:20:39.250Z,1.80
2017-12-03T12:23:06.836Z,1.80
2017-12-03T12:25:35.201Z,1.80
2017-12-03T12:28:02.770Z,1.80
2017-12-03T12:30:31.121Z,1.80
2017-12-03T12:32:59.509Z,1.80
2017-12-03T12:35:27.073Z,1.80
2017-12-03T12:37:54.642Z,1.80
2017-12-03T12:40:22.235Z,1.80
2017-12-03T12:42:49.858Z,1.80
2017-12-03T12:45:17.429Z,1.80
2017-12-03T12:47:45.014Z,1.80
2017-12-03T12:50:12.574Z,1.80
2017-12-03T12:52:40.874Z,1.80
2017-12-03T12:55:08.450Z,1.90
2017-12-03T12:57:36.223Z,1.90
2017-12-03T13:00:03.810Z,1.90
2017-12-03T13:02:31.396Z,1.90
2017-12-03T13:04:59.822Z,1.90
2017-12-03T13:07:27.394Z,1.90
2017-12-03T13:09:55.015Z,1.90
2017-12-03T13:12:22.602Z,1.90
2017-12-03T13:14:50.204Z,1.90
2017-12-03T13:17:17.775Z,2.00
2017-12-03T13:19:46.171Z,1.90
2017-12-03T13:22:14.558Z,1.90
2017-12-03T13:24:42.132Z,1.90
2017-12-03T13:27:09.762Z,2.00
2017-12-03T13:29:38.119Z,1.90
2017-12-03T13:32:05.772Z,1.90
2017-12-03T13:34:33.345Z,1.90
2017-12-03T13:37:00.988Z,1.90
2017-12-03T13:39:28.542Z,1.90
2017-12-03T13:41:56.344Z,1.90
2017-12-03T13:44:24.759Z,1.90
2017-12-03T13:46:52.398Z,1.90
2017-12-03T13:49:20.773Z,1.90
2017-12-03T13:51:49.093Z,1.90
2017-12-03T13:54:16.702Z,1.90
2017-12-03T13:56:45.117Z,1.90
2017-12-03T13:59:12.750Z,1.90
2017-12-03T14:01:41.118Z,1.90
2017-12-03T14:04:09.805Z,1.90
2017-12-03T14:06:37.405Z,1.90
2017-12-03T14:09:05.030Z,1.90
2017-12-03T14:11:33.380Z,2.00
2017-12-03T14:14:01.035Z,2.00
2017-12-03T14:16:28.615Z,1.90
2017-12-03T14:18:56.194Z,1.90
2017-12-03T14:21:24.540Z,2.00
2017-12-03T14:23:52.114Z,2.00
2017-12-03T14:26:19.682Z,2.00
2017-12-03T14:28:47.292Z,1.90
2017-12-03T14:31:15.061Z,2.00
2017-12-03T14:33:42.686Z,2.00
2017-12-03T14:36:11.033Z,2.00
2017-12-03T14:38:38.621Z,1.90
2017-12-03T14:41:06.206Z,2.00
2017-12-03T14:43:33.802Z,2.00
2017-12-03T14:46:01.423Z,1.90
2017-12-03T14:48:29.779Z,1.90
2017-12-03T14:50:57.370Z,1.90
2017-12-03T14:53:24.954Z,1.90
2017-12-03T14:55:52.534Z,1.90
2017-12-03T14:58:20.117Z,1.90
2017-12-03T15:00:47.794Z,1.90
2017-12-03T15:03:16.190Z,1.90
2017-12-03T15:05:44.550Z,1.90
2017-12-03T15:08:12.205Z,1.90
2017-12-03T15:10:39.802Z,1.90
2017-12-03T15:13:07.415Z,1.90
2017-12-03T15:15:35.007Z,1.90
2017-12-03T15:18:03.327Z,1.90
2017-12-03T15:20:31.721Z,1.90
2017-12-03T15:23:00.104Z,1.90
2017-12-03T15:25:27.726Z,1.90
2017-12-03T15:27:55.391Z,1.90
2017-12-03T15:30:23.536Z,1.90
2017-12-03T15:42:36.119Z,1.90
2017-12-03T15:45:04.623Z,1.80
2017-12-03T15:47:33.287Z,1.80
2017-12-03T15:50:01.596Z,1.90
2017-12-03T15:52:29.172Z,1.80
2017-12-03T15:54:56.846Z,1.90
2017-12-03T15:57:24.409Z,1.90
2017-12-03T15:59:52.025Z,1.90
2017-12-03T16:02:19.691Z,1.90
2017-12-03T16:04:47.262Z,1.90
2017-12-03T16:07:14.831Z,1.90
2017-12-03T16:09:42.605Z,1.90
2017-12-03T16:12:10.978Z,2.00
2017-12-03T16:14:38.646Z,1.90
2017-12-03T16:17:06.822Z,2.00
2017-12-03T16:19:34.439Z,2.00
2017-12-03T16:22:02.775Z,2.00
2017-12-03T16:24:30.385Z,2.00
2017-12-03T16:26:59.494Z,2.10
2017-12-03T16:29:28.881Z,2.00
2017-12-03T16:31:57.215Z,2.10
2017-12-03T16:34:24.853Z,2.10
2017-12-03T16:36:52.904Z,2.10
2017-12-03T16:39:21.324Z,2.10
2017-12-03T16:41:48.938Z,2.10
2017-12-03T16:44:16.520Z,2.10
2017-12-03T16:46:44.091Z,2.10
2017-12-03T16:49:12.590Z,2.10
2017-12-03T16:51:40.145Z,2.10
2017-12-03T16:54:07.746Z,2.20
2017-12-03T16:56:41.488Z,2.20
2017-12-03T16:59:09.353Z,2.20
2017-12-03T17:01:36.977Z,2.20
2017-12-03T17:04:04.511Z,2.20
2017-12-03T17:06:32.145Z,2.30
2017-12-03T17:08:59.741Z,2.20
2017-12-03T17:11:27.379Z,2.30
2017-12-03T17:13:54.943Z,2.30
2017-12-03T17:16:22.548Z,2.30
2017-12-03T17:18:50.122Z,2.20
2017-12-03T17:21:17.689Z,2.20
2017-12-03T17:23:46.035Z,2.20
2017-12-03T17:26:13.655Z,2.20
2017-12-03T17:28:41.305Z,2.20
2017-12-03T17:31:08.980Z,2.20
2017-12-03T17:33:36.629Z,2.20
2017-12-03T17:36:04.190Z,2.20
2017-12-03T17:38:32.601Z,2.30
2017-12-03T17:41:00.178Z,2.30
2017-12-03T17:43:27.836Z,2.30
2017-12-03T17:45:55.417Z,2.30
2017-12-03T17:48:22.982Z,2.30
2017-12-03T17:50:50.558Z,2.30
2017-12-03T17:53:18.959Z,2.40
2017-12-03T17:55:46.612Z,2.40
2017-12-03T17:58:15.017Z,2.40
2017-12-03T18:00:42.666Z,2.40
2017-12-03T18:03:10.231Z,2.40
2017-12-03T18:05:38.409Z,2.40
2017-12-03T18:08:06.822Z,2.50
2017-12-03T18:10:34.426Z,2.40
2017-12-03T18:13:02.882Z,2.50
2017-12-03T18:15:30.474Z,2.50
2017-12-03T18:17:58.895Z,2.50
2017-12-03T18:20:26.582Z,2.50
2017-12-03T18:22:54.254Z,2.50
2017-12-03T18:25:21.920Z,2.50
2017-12-03T18:27:49.535Z,2.50
2017-12-03T18:30:17.193Z,2.50
2017-12-03T18:32:44.796Z,2.50
2017-12-03T18:35:12.448Z,2.50
2017-12-03T18:37:40.013Z,2.60
2017-12-03T18:40:07.613Z,2.60
2017-12-03T18:42:35.949Z,2.60
2017-12-03T18:45:03.537Z,2.60
2017-12-03T18:47:31.088Z,2.60
2017-12-03T18:49:58.725Z,2.60
2017-12-03T18:52:26.330Z,2.60
2017-12-03T18:54:54.745Z,2.60
2017-12-03T18:57:22.348Z,2.60
2017-12-03T18:59:49.946Z,2.60
2017-12-03T19:02:18.453Z,2.60
2017-12-03T19:04:46.052Z,2.60
2017-12-03T19:07:13.727Z,2.60
2017-12-03T19:09:41.329Z,2.60
2017-12-03T19:12:09.091Z,2.60
2017-12-03T19:14:36.850Z,2.60
2017-12-03T19:17:05.197Z,2.70
2017-12-03T19:19:32.793Z,2.70
2017-12-03T19:22:00.684Z,2.70
2017-12-03T19:24:28.277Z,2.70
2017-12-03T19:26:56.200Z,2.70
2017-12-03T19:29:23.908Z,2.70
2017-12-03T19:31:51.486Z,2.70
2017-12-03T19:34:19.197Z,2.70
2017-12-03T19:36:46.769Z,2.70
2017-12-03T19:39:14.407Z,2.70
2017-12-03T19:41:42.040Z,2.80
2017-12-03T19:44:10.380Z,2.80
2017-12-03T19:46:38.065Z,2.80
2017-12-03T19:49:05.728Z,2.80
2017-12-03T19:51:33.454Z,2.80
2017-12-03T19:54:10.889Z,2.90
2017-12-03T19:56:38.779Z,2.90
2017-12-03T19:59:07.117Z,2.90
2017-12-03T20:01:34.710Z,2.90
2017-12-03T20:04:02.324Z,2.90
2017-12-03T20:06:29.874Z,2.90
2017-12-03T20:08:57.542Z,2.90
2017-12-03T20:11:25.245Z,2.90
2017-12-03T20:13:52.921Z,2.90
2017-12-03T20:16:21.438Z,2.90
2017-12-03T20:18:49.059Z,2.90
2017-12-03T20:21:16.732Z,3.00
2017-12-03T20:23:45.199Z,3.00
2017-12-03T20:26:12.787Z,3.00
2017-12-03T20:28:41.172Z,3.00
2017-12-03T20:31:09.556Z,3.00
2017-12-03T20:33:37.302Z,3.00
2017-12-03T20:36:05.182Z,3.00
2017-12-03T20:38:33.514Z,3.10
2017-12-03T20:41:01.138Z,3.00
2017-12-03T20:43:28.726Z,3.10
2017-12-03T20:45:56.342Z,3.10
2017-12-03T20:48:24.700Z,3.10
2017-12-03T20:50:52.304Z,3.10
2017-12-03T20:53:19.997Z,3.10
2017-12-03T20:55:47.619Z,3.10
2017-12-03T20:58:15.871Z,3.10
2017-12-03T21:00:43.558Z,3.10
2017-12-03T21:03:11.227Z,3.10
2017-12-03T21:05:38.932Z,3.10
2017-12-03T21:08:06.799Z,3.20
2017-12-03T21:10:34.398Z,3.20
2017-12-03T21:13:02.872Z,3.20
2017-12-03T21:15:31.239Z,3.20
2017-12-03T21:17:58.807Z,3.20
2017-12-03T21:20:26.421Z,3.20
2017-12-03T21:22:53.995Z,3.20
2017-12-03T21:25:21.645Z,3.20
2017-12-03T21:27:49.297Z,3.30
2017-12-03T21:30:16.849Z,3.30
2017-12-03T21:32:44.426Z,3.30
2017-12-03T21:35:12.105Z,3.30
2017-12-03T21:37:39.725Z,3.30
2017-12-03T21:40:07.374Z,3.30
2017-12-03T21:42:35.870Z,3.30
2017-12-03T21:45:03.522Z,3.30
2017-12-03T21:47:31.918Z,3.30
2017-12-03T21:50:00.274Z,3.30
2017-12-03T21:52:28.679Z,3.30
2017-12-03T21:54:57.007Z,3.30
2017-12-03T21:57:24.629Z,3.30
2017-12-03T21:59:52.206Z,3.30
2017-12-03T22:02:20.066Z,3.40
2017-12-03T22:04:47.707Z,3.40
2017-12-03T22:07:17.298Z,3.40
2017-12-03T22:09:45.677Z,3.40
2017-12-03T22:12:13.435Z,3.40
2017-12-03T22:14:41.860Z,3.40
2017-12-03T22:17:09.550Z,3.40
2017-12-03T22:19:37.150Z,3.40
2017-12-03T22:22:05.478Z,3.40
2017-12-03T22:24:33.159Z,3.40
2017-12-03T22:27:00.923Z,3.40
2017-12-03T22:29:29.706Z,3.40
2017-12-03T22:31:57.355Z,3.50
2017-12-03T22:34:24.965Z,3.50
2017-12-03T22:36:53.313Z,3.40
2017-12-03T22:39:20.939Z,3.40
2017-12-03T22:41:48.514Z,3.40
2017-12-03T22:44:16.128Z,3.50
2017-12-03T22:46:44.495Z,3.50
2017-12-03T22:49:12.146Z,3.50
2017-12-03T22:51:39.850Z,3.50
2017-12-03T22:54:07.467Z,3.50
2017-12-03T22:56:35.093Z,3.50
2017-12-03T22:59:02.666Z,3.50
2017-12-03T23:01:30.248Z,3.50
2017-12-03T23:03:58.504Z,3.50
2017-12-03T23:06:26.099Z,3.50
2017-12-03T23:08:53.681Z,3.50
2017-12-03T23:11:22.046Z,3.50
2017-12-03T23:13:49.792Z,3.50
2017-12-03T23:16:17.369Z,3.60
2017-12-03T23:18:44.944Z,3.60
2017-12-03T23:21:13.349Z,3.60
2017-12-03T23:23:40.979Z,3.60
2017-12-03T23:26:08.526Z,3.60
2017-12-03T23:28:36.117Z,3.60
2017-12-03T23:31:04.558Z,3.60
2017-12-03T23:33:32.137Z,3.60
2017-12-03T23:35:59.743Z,3.60
2017-12-03T23:38:27.336Z,3.70
2017-12-03T23:40:54.917Z,3.70
2017-12-03T23:43:22.476Z,3.70
2017-12-03T23:45:50.042Z,3.70
2017-12-03T23:48:17.618Z,3.70
2017-12-03T23:50:46.227Z,3.70
2017-12-03T23:53:13.803Z,3.70
2017-12-03T23:55:41.433Z,3.70
2017-12-03T23:58:09.806Z,3.70
